Time;durP1;ratioP1;P1;durP2;ratioP2;P2;SDS_P1;SDS_P2;PMS_P1;PMS_P2;Temp;Humidity;BMP_temperature;BMP_pressure;BME280_temperature;BME280_humidity;BME280_pressure;Samples;Min_cycle;Max_cycle;Signal;HPM_P1;HPM_P2
2021/01/07 00:00:53;;;;;;;13.13;9.13;;;2.40;99.90;;;;;;5067694;28;21015;-75
2021/01/07 00:03:20;;;;;;;12.97;9.23;;;2.40;99.90;;;;;;5054593;28;20452;-75
2021/01/07 00:05:46;;;;;;;10.93;9.77;;;2.40;99.90;;;;;;5060081;28;20484;-76
2021/01/07 00:08:13;;;;;;;11.87;9.93;;;2.40;99.90;;;;;;5059676;28;20534;-76
2021/01/07 00:10:40;;;;;;;14.47;10.70;;;2.30;99.90;;;;;;5067733;28;20522;-75
2021/01/07 00:13:06;;;;;;;12.93;10.73;;;2.40;99.90;;;;;;5061178;28;20548;-76
2021/01/07 00:15:32;;;;;;;13.00;9.93;;;2.40;99.90;;;;;;5060812;28;20452;-75
2021/01/07 00:17:59;;;;;;;12.83;9.57;;;2.40;99.90;;;;;;5046873;28;21043;-75
2021/01/07 00:20:25;;;;;;;13.10;10.20;;;2.40;99.90;;;;;;5061773;28;20483;-75
2021/01/07 00:22:51;;;;;;;14.20;10.87;;;2.40;99.90;;;;;;5047737;28;20440;-74
2021/01/07 00:25:19;;;;;;;13.13;10.10;;;2.30;99.90;;;;;;5047773;28;20479;-74
2021/01/07 00:27:45;;;;;;;11.80;9.83;;;2.40;99.90;;;;;;5052042;28;20501;-74
2021/01/07 00:30:13;;;;;;;12.60;10.50;;;2.40;99.90;;;;;;5049491;28;20575;-74
2021/01/07 00:32:39;;;;;;;14.57;10.87;;;2.40;99.90;;;;;;5071449;28;20944;-74
2021/01/07 00:35:06;;;;;;;12.60;10.30;;;2.30;99.90;;;;;;5068587;28;20483;-74
2021/01/07 00:37:33;;;;;;;11.50;9.83;;;2.30;99.90;;;;;;5066223;28;20904;-75
2021/01/07 00:39:59;;;;;;;14.03;10.20;;;2.30;99.90;;;;;;5067201;28;20557;-74
2021/01/07 00:42:26;;;;;;;11.40;9.10;;;2.40;99.90;;;;;;5067714;28;20538;-75
2021/01/07 00:44:53;;;;;;;13.73;11.00;;;2.40;99.90;;;;;;5060904;28;20451;-75
2021/01/07 00:47:19;;;;;;;13.03;10.37;;;2.30;99.90;;;;;;5065851;28;21013;-75
2021/01/07 00:49:47;;;;;;;12.77;10.20;;;2.40;99.90;;;;;;5067149;28;20566;-75
2021/01/07 00:52:14;;;;;;;13.50;10.90;;;2.30;99.90;;;;;;5066668;28;20447;-75
2021/01/07 00:54:41;;;;;;;14.23;11.03;;;2.30;99.90;;;;;;5053568;28;20455;-75
2021/01/07 00:57:07;;;;;;;15.20;10.93;;;2.30;99.90;;;;;;5058945;28;20575;-75
2021/01/07 00:59:35;;;;;;;14.60;10.70;;;2.30;99.90;;;;;;5053503;28;20443;-75
2021/01/07 01:02:01;;;;;;;13.90;11.37;;;2.30;99.90;;;;;;5066938;28;21330;-75
2021/01/07 01:04:27;;;;;;;14.73;10.17;;;2.40;99.90;;;;;;5060299;28;20998;-75
2021/01/07 01:06:54;;;;;;;14.93;11.10;;;2.40;99.90;;;;;;5065657;28;20502;-76
2021/01/07 01:09:20;;;;;;;13.73;11.27;;;2.40;99.90;;;;;;5066394;28;20505;-77
2021/01/07 01:11:48;;;;;;;15.60;10.83;;;2.40;99.90;;;;;;5066325;28;20534;-77
2021/01/07 01:14:17;;;;;;;13.53;11.00;;;2.40;99.90;;;;;;5065604;28;20450;-77
2021/01/07 01:16:44;;;;;;;13.10;10.50;;;2.40;99.90;;;;;;5064712;28;20471;-76
2021/01/07 01:19:11;;;;;;;15.53;11.47;;;2.40;99.90;;;;;;5065578;28;20454;-76
2021/01/07 01:21:37;;;;;;;14.53;10.50;;;2.40;99.90;;;;;;5058187;28;20515;-77
2021/01/07 01:24:04;;;;;;;15.20;10.63;;;2.40;99.90;;;;;;5060639;28;21022;-76
2021/01/07 01:26:30;;;;;;;13.33;10.10;;;2.40;99.90;;;;;;5063533;28;20510;-77
2021/01/07 01:28:57;;;;;;;14.30;10.73;;;2.30;99.90;;;;;;5058306;28;21029;-77
2021/01/07 01:31:23;;;;;;;13.80;10.87;;;2.40;99.90;;;;;;5047124;28;20452;-77
2021/01/07 01:33:50;;;;;;;14.20;11.37;;;2.30;99.90;;;;;;5059246;28;20443;-77
2021/01/07 01:36:23;;;;;;;17.00;12.07;;;2.30;99.90;;;;;;5060714;28;20467;-74
2021/01/07 01:38:50;;;;;;;14.50;10.60;;;2.20;99.90;;;;;;5066869;28;20518;-77
2021/01/07 01:41:16;;;;;;;17.40;13.60;;;2.30;99.90;;;;;;5053594;28;20537;-76
2021/01/07 01:43:43;;;;;;;15.83;12.03;;;2.20;99.90;;;;;;5066544;28;21239;-76
2021/01/07 01:46:09;;;;;;;14.80;10.77;;;2.30;99.90;;;;;;5065052;28;20510;-76
2021/01/07 01:48:36;;;;;;;18.50;11.73;;;2.20;99.90;;;;;;5059984;28;20450;-77
2021/01/07 01:51:04;;;;;;;14.03;11.27;;;2.20;99.90;;;;;;5065955;28;20461;-77
2021/01/07 01:53:31;;;;;;;14.30;11.17;;;2.20;99.90;;;;;;5060194;28;20445;-77
2021/01/07 01:55:59;;;;;;;16.20;11.40;;;2.10;99.90;;;;;;5058910;28;20802;-75
2021/01/07 01:58:26;;;;;;;16.57;12.40;;;2.20;99.90;;;;;;5066166;28;20463;-76
2021/01/07 02:00:52;;;;;;;16.07;10.60;;;2.20;99.90;;;;;;5057448;28;20490;-77
2021/01/07 02:03:19;;;;;;;14.83;10.80;;;2.20;99.90;;;;;;5059152;28;20542;-74
2021/01/07 02:05:45;;;;;;;16.23;11.37;;;2.20;99.90;;;;;;5053428;28;20535;-72
2021/01/07 02:08:15;;;;;;;13.10;10.20;;;2.20;99.90;;;;;;5051570;28;20493;-76
2021/01/07 02:10:42;;;;;;;12.43;10.50;;;2.10;99.90;;;;;;5066573;28;20482;-75
2021/01/07 02:13:09;;;;;;;15.40;11.27;;;2.20;99.90;;;;;;5067404;28;20453;-76
2021/01/07 02:15:40;;;;;;;15.13;10.77;;;2.10;99.90;;;;;;5066894;28;20451;-76
2021/01/07 02:18:06;;;;;;;13.40;10.53;;;2.20;99.90;;;;;;5067581;28;20451;-76
2021/01/07 02:20:34;;;;;;;16.57;10.27;;;2.30;99.90;;;;;;5070533;28;20451;-74
2021/01/07 02:23:01;;;;;;;16.13;11.00;;;2.30;99.90;;;;;;5070835;28;20541;-75
2021/01/07 02:25:28;;;;;;;15.67;11.23;;;2.30;99.90;;;;;;5070827;28;20564;-75
2021/01/07 02:27:54;;;;;;;12.30;11.00;;;2.20;99.90;;;;;;5069795;28;20467;-75
2021/01/07 02:30:21;;;;;;;15.40;11.47;;;2.20;99.90;;;;;;5070488;28;20486;-75
2021/01/07 02:32:48;;;;;;;18.13;11.43;;;2.20;99.90;;;;;;5070697;28;20873;-75
2021/01/07 02:35:15;;;;;;;14.80;11.30;;;2.10;99.90;;;;;;5070856;28;20451;-75
2021/01/07 02:37:42;;;;;;;13.70;11.63;;;2.20;99.90;;;;;;5069840;28;20523;-75
2021/01/07 02:40:10;;;;;;;12.20;10.43;;;2.20;99.90;;;;;;5070495;28;20550;-75
2021/01/07 02:42:37;;;;;;;13.37;11.90;;;2.20;99.90;;;;;;5070586;28;20457;-75
2021/01/07 02:45:04;;;;;;;16.30;10.80;;;2.20;99.90;;;;;;5070727;28;20436;-75
2021/01/07 02:47:31;;;;;;;12.93;10.00;;;2.20;99.90;;;;;;5069712;28;20491;-75
2021/01/07 02:49:57;;;;;;;14.13;11.03;;;2.30;99.90;;;;;;5070503;28;20514;-75
2021/01/07 02:52:24;;;;;;;15.23;11.23;;;2.30;99.90;;;;;;5070609;28;20553;-75
2021/01/07 02:54:51;;;;;;;14.50;11.40;;;2.30;99.90;;;;;;5070741;28;20902;-75
2021/01/07 02:57:17;;;;;;;13.80;11.33;;;2.30;99.90;;;;;;5069862;28;20903;-74
2021/01/07 02:59:44;;;;;;;15.10;11.57;;;2.20;99.90;;;;;;5070943;28;20824;-74
2021/01/07 03:02:10;;;;;;;17.20;11.80;;;2.30;99.90;;;;;;5071147;28;20530;-76
2021/01/07 03:04:36;;;;;;;15.43;11.70;;;2.30;99.90;;;;;;5071036;28;20956;-76
2021/01/07 03:07:03;;;;;;;15.80;11.37;;;2.30;99.90;;;;;;5070559;28;20470;-74
2021/01/07 03:09:29;;;;;;;15.30;11.40;;;2.30;99.90;;;;;;5070469;28;20570;-75
2021/01/07 03:11:56;;;;;;;15.00;11.00;;;2.40;99.90;;;;;;5071172;28;21250;-76
2021/01/07 03:14:23;;;;;;;12.37;10.03;;;2.40;99.90;;;;;;5071063;28;20447;-76
2021/01/07 03:16:49;;;;;;;17.08;13.38;;;2.40;99.90;;;;;;5069672;28;20499;-76
2021/01/07 03:19:15;;;;;;;15.23;12.40;;;2.40;99.90;;;;;;5070290;28;20197;-76
2021/01/07 03:21:42;;;;;;;13.33;10.70;;;2.30;99.90;;;;;;5070181;28;20490;-75
2021/01/07 03:24:09;;;;;;;15.47;10.93;;;2.30;99.90;;;;;;5069949;28;20436;-75
2021/01/07 03:26:36;;;;;;;15.50;11.47;;;2.40;99.90;;;;;;5069538;28;20482;-76
2021/01/07 03:29:03;;;;;;;16.63;11.57;;;2.30;99.90;;;;;;5069847;28;20486;-75
2021/01/07 03:31:31;;;;;;;15.77;11.03;;;2.30;99.90;;;;;;5069561;28;20451;-76
2021/01/07 03:33:57;;;;;;;15.10;11.20;;;2.20;99.90;;;;;;5069941;28;20449;-75
2021/01/07 03:36:23;;;;;;;15.30;11.00;;;2.20;99.90;;;;;;5069025;28;20578;-76
2021/01/07 03:38:50;;;;;;;16.17;12.10;;;2.20;99.90;;;;;;5068806;28;20483;-76
2021/01/07 03:41:16;;;;;;;15.87;10.57;;;2.30;99.90;;;;;;5069570;28;20534;-76
2021/01/07 03:43:42;;;;;;;15.47;11.17;;;2.30;99.90;;;;;;5069819;28;20443;-76
2021/01/07 03:46:10;;;;;;;13.90;12.00;;;2.30;99.90;;;;;;5069563;28;20557;-75
2021/01/07 03:48:36;;;;;;;16.40;12.30;;;2.30;99.90;;;;;;5069819;28;20821;-75
2021/01/07 03:51:03;;;;;;;14.70;11.77;;;2.30;99.90;;;;;;5069718;28;20483;-75
2021/01/07 03:53:29;;;;;;;15.30;10.60;;;2.30;99.90;;;;;;5069549;28;20451;-75
2021/01/07 03:55:56;;;;;;;14.00;11.23;;;2.30;99.90;;;;;;5068945;28;20524;-75
2021/01/07 03:58:22;;;;;;;13.90;10.53;;;2.30;99.90;;;;;;5069638;28;20454;-75
2021/01/07 04:00:48;;;;;;;18.23;11.93;;;2.30;99.90;;;;;;5069262;28;20959;-75
2021/01/07 04:03:16;;;;;;;16.67;12.07;;;2.30;99.90;;;;;;5069475;28;20482;-75
2021/01/07 04:05:42;;;;;;;15.00;11.40;;;2.20;99.90;;;;;;5068527;28;20811;-75
2021/01/07 04:08:08;;;;;;;12.40;10.87;;;2.30;99.90;;;;;;5069279;28;20538;-76
2021/01/07 04:10:35;;;;;;;14.57;11.63;;;2.40;99.90;;;;;;5069509;28;20479;-75
2021/01/07 04:13:02;;;;;;;13.93;11.30;;;2.40;99.90;;;;;;5069485;28;20463;-75
2021/01/07 04:15:28;;;;;;;16.00;11.23;;;2.40;99.90;;;;;;5069143;28;20482;-75
2021/01/07 04:17:55;;;;;;;17.87;10.60;;;2.30;99.90;;;;;;5068439;28;20555;-76
2021/01/07 04:20:22;;;;;;;14.10;10.63;;;2.40;99.90;;;;;;5069175;28;20546;-75
2021/01/07 04:22:48;;;;;;;14.37;10.60;;;2.40;99.90;;;;;;5068981;28;20483;-75
2021/01/07 04:25:15;;;;;;;14.13;10.50;;;2.30;99.90;;;;;;5069100;28;20451;-76
2021/01/07 04:27:41;;;;;;;14.87;10.27;;;2.20;99.90;;;;;;5068222;28;20558;-75
2021/01/07 04:30:09;;;;;;;15.30;11.57;;;2.20;99.90;;;;;;5067164;28;20491;-75
2021/01/07 04:32:35;;;;;;;15.33;10.87;;;2.30;99.90;;;;;;5068497;28;20465;-75
2021/01/07 04:35:02;;;;;;;15.07;10.73;;;2.20;99.90;;;;;;5068375;28;21199;-75
2021/01/07 04:37:29;;;;;;;14.50;10.47;;;2.10;99.90;;;;;;5067785;28;20463;-75
2021/01/07 04:39:56;;;;;;;12.57;10.30;;;2.10;99.90;;;;;;5068509;28;20451;-75
2021/01/07 04:42:22;;;;;;;14.30;11.57;;;2.10;99.90;;;;;;5067905;28;20443;-76
2021/01/07 04:44:49;;;;;;;12.53;9.70;;;2.20;99.90;;;;;;5068390;28;20534;-75
2021/01/07 04:47:16;;;;;;;14.50;10.17;;;2.20;99.90;;;;;;5067588;28;20471;-75
2021/01/07 04:49:43;;;;;;;13.70;10.10;;;2.20;99.90;;;;;;5068289;28;20493;-75
2021/01/07 04:52:09;;;;;;;11.90;9.13;;;2.20;99.90;;;;;;5071834;28;20447;-75
2021/01/07 04:54:37;;;;;;;11.83;9.60;;;2.20;99.90;;;;;;5076748;28;20904;-75
2021/01/07 04:57:03;;;;;;;12.20;9.30;;;2.10;99.90;;;;;;5076341;28;20534;-75
2021/01/07 04:59:29;;;;;;;11.50;9.37;;;2.00;99.90;;;;;;5068659;28;20447;-75
2021/01/07 05:01:56;;;;;;;13.03;9.93;;;2.00;99.90;;;;;;5068285;28;21006;-75
2021/01/07 05:04:23;;;;;;;13.63;10.20;;;2.10;99.90;;;;;;5068391;28;20447;-75
2021/01/07 05:06:49;;;;;;;13.97;11.27;;;2.10;99.90;;;;;;5067712;28;20557;-75
2021/01/07 05:09:15;;;;;;;12.80;9.57;;;2.10;99.90;;;;;;5068350;28;20482;-75
2021/01/07 05:11:43;;;;;;;16.00;10.33;;;2.10;99.90;;;;;;5068444;28;20447;-75
2021/01/07 05:14:11;;;;;;;12.50;10.13;;;2.10;99.90;;;;;;5068222;28;20449;-75
2021/01/07 05:16:37;;;;;;;16.13;11.50;;;2.10;99.90;;;;;;5067370;28;20467;-75
2021/01/07 05:19:05;;;;;;;17.27;12.93;;;2.10;99.90;;;;;;5068707;28;21010;-74
2021/01/07 05:21:32;;;;;;;16.20;10.60;;;2.10;99.90;;;;;;5068609;28;20536;-75
2021/01/07 05:23:59;;;;;;;15.03;11.17;;;2.10;99.90;;;;;;5068321;28;20442;-74
2021/01/07 05:26:26;;;;;;;12.50;10.97;;;2.00;99.90;;;;;;5067264;28;20471;-74
2021/01/07 05:28:55;;;;;;;15.17;11.90;;;2.00;99.90;;;;;;5068398;28;20525;-74
2021/01/07 05:31:23;;;;;;;15.30;10.90;;;2.00;99.90;;;;;;5066291;28;20529;-75
2021/01/07 05:33:50;;;;;;;13.93;9.77;;;2.00;99.90;;;;;;5068159;28;20553;-74
2021/01/07 05:36:25;;;;;;;14.50;10.07;;;2.00;99.90;;;;;;5067060;28;20505;-75
2021/01/07 05:38:54;;;;;;;13.77;11.53;;;2.10;99.90;;;;;;5067673;28;20862;-75
2021/01/07 05:41:22;;;;;;;16.20;10.70;;;2.20;99.90;;;;;;5068016;28;20534;-75
2021/01/07 05:43:59;;;;;;;14.77;11.20;;;2.10;99.90;;;;;;5068042;28;20458;-75
2021/01/07 05:46:25;;;;;;;14.93;11.20;;;2.10;99.90;;;;;;5067172;28;20494;-75
2021/01/07 05:48:54;;;;;;;15.20;11.07;;;2.10;99.90;;;;;;5067736;28;20528;-75
2021/01/07 05:51:23;;;;;;;15.87;11.03;;;2.10;99.90;;;;;;5067596;28;20451;-75
2021/01/07 05:53:51;;;;;;;12.13;10.10;;;2.20;99.90;;;;;;5069900;28;20447;-75
2021/01/07 05:56:20;;;;;;;14.60;10.70;;;2.20;99.90;;;;;;5070591;28;20558;-74
2021/01/07 05:58:48;;;;;;;14.63;11.07;;;2.10;99.90;;;;;;5071572;28;20520;-75
2021/01/07 06:01:16;;;;;;;12.70;9.70;;;2.20;99.90;;;;;;5071291;28;20454;-75
2021/01/07 06:03:47;;;;;;;12.80;11.40;;;2.20;99.90;;;;;;5071286;28;21064;-75
2021/01/07 06:06:16;;;;;;;13.87;10.20;;;2.20;99.90;;;;;;5070600;28;20463;-75
2021/01/07 06:08:47;;;;;;;13.43;10.17;;;2.30;99.90;;;;;;5071103;28;20459;-75
2021/01/07 06:11:15;;;;;;;14.70;9.70;;;2.20;99.90;;;;;;5071461;28;20493;-75
2021/01/07 06:13:43;;;;;;;14.77;9.90;;;2.10;99.90;;;;;;5071268;28;20477;-75
2021/01/07 06:16:12;;;;;;;12.77;9.43;;;2.20;99.90;;;;;;5070602;28;20489;-75
2021/01/07 06:18:40;;;;;;;13.53;9.33;;;2.10;99.90;;;;;;5071044;28;21088;-74
2021/01/07 06:21:08;;;;;;;12.57;9.20;;;2.10;99.90;;;;;;5070998;28;20530;-75
2021/01/07 06:23:42;;;;;;;13.10;9.77;;;2.10;99.90;;;;;;5071358;28;20447;-75
2021/01/07 06:26:19;;;;;;;12.80;9.83;;;2.10;99.90;;;;;;5070267;28;20501;-75
2021/01/07 06:28:46;;;;;;;15.10;9.80;;;2.10;99.90;;;;;;5071018;28;20523;-75
2021/01/07 06:31:15;;;;;;;11.80;9.67;;;2.20;99.90;;;;;;5070933;28;20509;-75
2021/01/07 06:33:43;;;;;;;12.60;9.33;;;2.10;99.90;;;;;;5070935;28;20439;-75
2021/01/07 06:36:11;;;;;;;12.67;9.17;;;2.10;99.90;;;;;;5070042;28;20535;-75
2021/01/07 06:38:47;;;;;;;14.27;9.70;;;2.00;99.90;;;;;;5070887;28;20504;-75
2021/01/07 06:41:15;;;;;;;11.07;8.80;;;2.00;99.90;;;;;;5070952;28;20459;-75
2021/01/07 06:43:42;;;;;;;12.43;9.03;;;2.00;99.90;;;;;;5070803;28;20516;-74
2021/01/07 06:46:09;;;;;;;12.03;8.73;;;2.10;99.90;;;;;;5070122;28;20908;-74
2021/01/07 06:48:37;;;;;;;14.00;9.47;;;2.10;99.90;;;;;;5070651;28;20447;-74
2021/01/07 06:51:06;;;;;;;11.70;8.50;;;2.10;99.90;;;;;;5070621;28;21027;-74
2021/01/07 06:53:37;;;;;;;13.10;9.43;;;2.10;99.90;;;;;;5070573;28;20538;-74
2021/01/07 06:56:15;;;;;;;11.93;8.70;;;2.10;99.90;;;;;;5069589;28;20573;-74
2021/01/07 06:58:43;;;;;;;10.63;7.70;;;2.20;99.90;;;;;;5070723;28;20439;-74
2021/01/07 07:01:11;;;;;;;9.77;8.20;;;2.20;99.90;;;;;;5070642;28;20454;-74
2021/01/07 07:03:50;;;;;;;10.23;7.53;;;2.20;99.90;;;;;;5068825;28;20486;-74
2021/01/07 07:06:19;;;;;;;10.87;7.90;;;2.20;99.90;;;;;;5068787;28;20554;-74
2021/01/07 07:08:46;;;;;;;10.10;7.53;;;2.30;99.90;;;;;;5070381;28;20443;-75
2021/01/07 07:11:28;;;;;;;9.87;7.10;;;2.30;99.90;;;;;;5072269;28;20573;-74
2021/01/07 07:13:57;;;;;;;11.13;7.37;;;2.30;99.90;;;;;;5074901;28;20439;-74
2021/01/07 07:16:25;;;;;;;9.77;7.60;;;2.30;99.90;;;;;;5069485;28;20493;-74
2021/01/07 07:18:55;;;;;;;8.33;7.43;;;2.30;99.90;;;;;;5070087;28;20920;-74
2021/01/07 07:21:24;;;;;;;9.40;7.60;;;2.30;99.90;;;;;;5070336;28;20558;-74
2021/01/07 07:23:52;;;;;;;11.70;7.67;;;2.30;99.90;;;;;;5068909;28;20443;-74
2021/01/07 07:26:33;;;;;;;11.90;8.37;;;2.30;99.90;;;;;;5069560;28;20561;-73
2021/01/07 07:29:03;;;;;;;8.67;6.70;;;2.30;99.90;;;;;;5069717;28;20558;-74
2021/01/07 07:31:40;;;;;;;9.90;7.67;;;2.30;99.90;;;;;;5069983;28;20445;-74
2021/01/07 07:34:07;;;;;;;10.97;8.23;;;2.30;99.90;;;;;;5071103;28;20424;-75
2021/01/07 07:36:35;;;;;;;11.20;7.87;;;2.40;99.90;;;;;;5070268;28;20486;-74
2021/01/07 07:39:03;;;;;;;8.73;6.60;;;2.40;99.90;;;;;;5070337;28;20486;-74
2021/01/07 07:41:30;;;;;;;8.73;7.17;;;2.30;99.90;;;;;;5069944;28;20609;-74
2021/01/07 07:43:57;;;;;;;12.20;9.03;;;2.30;99.90;;;;;;5069847;28;20538;-74
2021/01/07 07:46:25;;;;;;;10.47;8.27;;;2.30;99.90;;;;;;5069265;28;20608;-74
2021/01/07 07:48:58;;;;;;;10.67;7.73;;;2.40;99.90;;;;;;5069686;28;20447;-74
2021/01/07 07:51:25;;;;;;;11.20;8.70;;;2.40;99.90;;;;;;5070023;28;20482;-74
2021/01/07 07:54:02;;;;;;;12.13;8.50;;;2.40;99.90;;;;;;5069690;28;20483;-74
2021/01/07 07:56:29;;;;;;;13.27;9.70;;;2.30;99.90;;;;;;5068682;28;20474;-74
2021/01/07 07:59:00;;;;;;;12.67;8.67;;;2.50;99.90;;;;;;5069389;28;20935;-74
2021/01/07 08:01:41;;;;;;;11.53;8.80;;;2.60;99.90;;;;;;5069567;28;20529;-75
2021/01/07 08:04:15;;;;;;;12.23;8.57;;;2.60;99.90;;;;;;5069450;28;20495;-74
2021/01/07 08:06:42;;;;;;;13.10;9.00;;;2.60;99.90;;;;;;5069487;28;20688;-74
2021/01/07 08:09:11;;;;;;;12.40;9.70;;;2.60;99.90;;;;;;5069837;28;20451;-74
2021/01/07 08:11:46;;;;;;;12.13;8.73;;;2.70;99.90;;;;;;5069669;28;20491;-74
2021/01/07 08:14:15;;;;;;;16.17;9.87;;;2.70;99.90;;;;;;5069669;28;20537;-75
2021/01/07 08:16:42;;;;;;;11.53;8.97;;;2.70;99.90;;;;;;5068843;28;20567;-74
2021/01/07 08:19:19;;;;;;;13.03;9.80;;;2.80;99.90;;;;;;5069293;28;20471;-74
2021/01/07 08:21:47;;;;;;;14.80;10.77;;;2.70;99.90;;;;;;5068835;28;20482;-74
2021/01/07 08:24:16;;;;;;;12.43;10.10;;;2.70;99.90;;;;;;5067858;28;20754;-74
2021/01/07 08:26:46;;;;;;;12.30;9.47;;;2.80;99.90;;;;;;5068494;28;20967;-74
2021/01/07 08:29:14;;;;;;;13.77;9.83;;;2.80;99.90;;;;;;5068768;28;20445;-74
2021/01/07 08:31:47;;;;;;;14.23;8.33;;;2.90;99.90;;;;;;5068803;28;20876;-74
2021/01/07 08:34:17;;;;;;;12.07;9.53;;;2.90;99.90;;;;;;5068812;28;20447;-74
2021/01/07 08:36:44;;;;;;;12.87;9.50;;;2.90;99.90;;;;;;5067977;28;20475;-74
2021/01/07 08:39:16;;;;;;;18.43;8.87;;;3.00;99.90;;;;;;5068477;28;20455;-75
2021/01/07 08:41:45;;;;;;;13.83;9.47;;;3.00;99.90;;;;;;5069251;28;20435;-74
2021/01/07 08:44:12;;;;;;;13.20;9.93;;;3.00;99.90;;;;;;5068904;28;20483;-75
2021/01/07 08:46:39;;;;;;;13.60;9.50;;;3.00;99.90;;;;;;5068386;28;20553;-74
2021/01/07 08:49:07;;;;;;;13.30;9.47;;;3.00;99.90;;;;;;5068822;28;20554;-75
2021/01/07 08:51:39;;;;;;;10.70;8.80;;;3.10;99.90;;;;;;5068622;28;20446;-75
2021/01/07 08:54:16;;;;;;;10.93;9.10;;;3.10;99.90;;;;;;5068732;28;20459;-75
2021/01/07 08:56:43;;;;;;;14.53;10.17;;;3.20;99.90;;;;;;5067893;28;20578;-72
2021/01/07 08:59:30;;;;;;;16.33;8.93;;;3.20;99.90;;;;;;5068729;28;20447;-77
2021/01/07 09:01:58;;;;;;;15.40;9.50;;;3.20;99.90;;;;;;5068599;28;20538;-76
2021/01/07 09:04:33;;;;;;;13.07;9.53;;;3.30;99.90;;;;;;5068494;28;20490;-71
2021/01/07 09:07:05;;;;;;;11.90;9.37;;;3.40;99.90;;;;;;5067791;28;20467;-72
2021/01/07 09:09:41;;;;;;;12.83;9.83;;;3.40;99.90;;;;;;5068268;28;20566;-73
2021/01/07 09:12:09;;;;;;;13.50;10.23;;;3.40;99.90;;;;;;5068189;28;20935;-74
2021/01/07 09:14:50;;;;;;;14.67;9.77;;;3.40;99.90;;;;;;5068806;28;20526;-74
2021/01/07 09:17:18;;;;;;;11.57;9.37;;;3.50;99.90;;;;;;5067788;28;20502;-71
2021/01/07 09:19:45;;;;;;;12.23;9.83;;;3.50;99.90;;;;;;5068295;28;20497;-70
2021/01/07 09:22:25;;;;;;;13.47;10.07;;;3.50;99.90;;;;;;5068122;28;20543;-73
2021/01/07 09:24:53;;;;;;;16.93;11.73;;;3.50;99.90;;;;;;5067897;28;20446;-71
2021/01/07 09:27:21;;;;;;;14.40;9.73;;;3.50;99.90;;;;;;5068044;28;20511;-71
2021/01/07 09:29:48;;;;;;;13.10;10.27;;;3.50;99.90;;;;;;5072705;28;21092;-71
2021/01/07 09:32:15;;;;;;;14.33;10.47;;;3.50;99.90;;;;;;5074546;28;20474;-73
2021/01/07 09:34:42;;;;;;;16.67;11.73;;;3.50;99.90;;;;;;5073871;28;20496;-73
2021/01/07 09:37:12;;;;;;;16.17;12.50;;;3.50;99.90;;;;;;5073575;28;20549;-73
2021/01/07 09:39:39;;;;;;;14.97;10.87;;;3.50;99.90;;;;;;5074797;28;20443;-75
2021/01/07 09:42:07;;;;;;;13.73;9.93;;;3.60;99.90;;;;;;5074537;28;21074;-68
2021/01/07 09:44:34;;;;;;;16.00;11.87;;;3.50;99.90;;;;;;5075180;28;20538;-76
2021/01/07 09:47:02;;;;;;;16.90;12.00;;;3.50;99.90;;;;;;5074009;28;20501;-75
2021/01/07 09:49:29;;;;;;;14.40;10.03;;;3.50;99.90;;;;;;5074835;28;20470;-75
2021/01/07 09:51:56;;;;;;;17.30;11.47;;;3.60;99.90;;;;;;5075915;28;20443;-74
2021/01/07 09:54:23;;;;;;;16.60;11.90;;;3.70;99.90;;;;;;5053844;28;20487;-75
2021/01/07 09:56:52;;;;;;;17.10;12.40;;;3.80;99.90;;;;;;5068326;28;20558;-74
2021/01/07 09:59:20;;;;;;;14.35;10.00;;;3.80;99.90;;;;;;5071524;28;20929;-72
2021/01/07 10:01:46;;;;;;;14.30;10.47;;;3.90;99.90;;;;;;5072790;28;20226;-71
2021/01/07 10:04:14;;;;;;;13.70;10.87;;;4.00;99.90;;;;;;5072663;28;20446;-73
2021/01/07 10:06:41;;;;;;;16.40;11.60;;;4.00;99.90;;;;;;5072272;28;20473;-73
2021/01/07 10:09:08;;;;;;;17.43;10.53;;;4.10;99.90;;;;;;5072936;28;20534;-74
2021/01/07 10:11:34;;;;;;;13.93;10.40;;;3.90;99.90;;;;;;5071186;28;20607;-73
2021/01/07 10:14:00;;;;;;;15.93;10.67;;;3.90;99.90;;;;;;5072723;28;20533;-73
2021/01/07 10:16:28;;;;;;;13.10;11.30;;;3.80;99.90;;;;;;5070947;28;20473;-73
2021/01/07 10:18:54;;;;;;;13.47;10.20;;;3.70;99.90;;;;;;5072281;28;20446;-73
2021/01/07 10:21:24;;;;;;;13.70;10.67;;;3.70;99.90;;;;;;5072742;28;20443;-74
2021/01/07 10:23:52;;;;;;;15.23;9.90;;;3.70;99.90;;;;;;5073320;28;20558;-74
2021/01/07 10:26:20;;;;;;;14.10;12.00;;;3.70;99.90;;;;;;5067957;28;20483;-73
2021/01/07 10:28:47;;;;;;;14.73;10.50;;;3.70;99.90;;;;;;5066148;28;20966;-73
2021/01/07 10:31:14;;;;;;;13.13;9.90;;;3.70;99.90;;;;;;5063383;28;20472;-73
2021/01/07 10:33:42;;;;;;;13.80;10.50;;;3.60;99.90;;;;;;5067072;28;21113;-73
2021/01/07 10:36:09;;;;;;;15.67;10.53;;;3.70;99.90;;;;;;5063720;28;20545;-73
2021/01/07 10:38:38;;;;;;;16.60;11.63;;;3.80;99.90;;;;;;5066911;28;20451;-72
2021/01/07 10:41:07;;;;;;;17.50;12.10;;;3.80;99.90;;;;;;5061859;28;20489;-76
2021/01/07 10:43:34;;;;;;;15.77;11.53;;;4.00;99.90;;;;;;5058729;28;20498;-73
2021/01/07 10:46:00;;;;;;;12.83;10.07;;;4.10;99.90;;;;;;5068118;28;20447;-73
2021/01/07 10:48:27;;;;;;;13.53;10.13;;;4.30;99.90;;;;;;5069922;28;20532;-68
2021/01/07 10:50:54;;;;;;;14.47;10.50;;;4.50;99.90;;;;;;5070948;28;20487;-67
2021/01/07 10:54:00;;;;;;;12.60;8.90;;;4.60;99.90;;;;;;5071533;28;20478;-71
2021/01/07 10:56:56;;;;;;;10.90;9.00;;;4.80;99.90;;;;;;5062706;28;20474;-74
2021/01/07 10:59:32;;;;;;;12.00;8.10;;;4.90;99.90;;;;;;5058155;28;20545;-74
2021/01/07 11:02:29;;;;;;;12.23;8.73;;;4.90;99.90;;;;;;5056305;28;20454;-74
2021/01/07 11:05:10;;;;;;;11.37;8.57;;;4.90;99.90;;;;;;5068000;28;20485;-73
2021/01/07 11:07:46;;;;;;;9.80;7.67;;;4.90;99.90;;;;;;5068241;28;20459;-74
2021/01/07 11:10:15;;;;;;;10.57;8.03;;;4.80;99.90;;;;;;5060262;28;20486;-72
2021/01/07 11:12:52;;;;;;;11.43;8.50;;;4.80;99.90;;;;;;5053059;28;20456;-71
2021/01/07 11:15:21;;;;;;;10.00;7.20;;;4.70;99.90;;;;;;5068074;28;20455;-72
2021/01/07 11:17:52;;;;;;;11.90;9.20;;;4.60;99.90;;;;;;5066234;28;20512;-71
2021/01/07 11:20:20;;;;;;;8.10;7.00;;;4.70;99.90;;;;;;5059252;28;20510;-71
2021/01/07 11:22:48;;;;;;;13.03;8.10;;;4.70;99.90;;;;;;5066695;28;20443;-72
2021/01/07 11:25:15;;;;;;;10.83;8.00;;;4.60;99.90;;;;;;5058756;28;20526;-72
2021/01/07 11:27:44;;;;;;;9.60;7.10;;;4.50;99.90;;;;;;5047696;28;20543;-71
2021/01/07 11:30:11;;;;;;;8.57;6.80;;;4.50;99.90;;;;;;5051435;28;20562;-71
2021/01/07 11:32:38;;;;;;;7.30;5.80;;;4.50;99.90;;;;;;5051804;28;20476;-71
2021/01/07 11:35:08;;;;;;;7.60;6.27;;;4.50;99.90;;;;;;5068263;28;20585;-74
2021/01/07 11:38:01;;;;;;;9.80;6.60;;;4.50;99.90;;;;;;5059804;28;20469;-74
2021/01/07 11:40:34;;;;;;;8.07;6.50;;;4.50;99.90;;;;;;5032584;28;20511;-74
2021/01/07 11:43:30;;;;;;;6.93;5.67;;;4.50;99.90;;;;;;5052873;28;20459;-71
2021/01/07 11:46:00;;;;;;;8.33;7.27;;;4.50;99.90;;;;;;5027424;28;20471;-74
2021/01/07 11:48:29;;;;;;;9.17;6.60;;;4.40;99.90;;;;;;5054538;28;21029;-72
2021/01/07 11:51:04;;;;;;;9.90;6.37;;;4.50;99.90;;;;;;5065559;28;20514;-73
2021/01/07 11:53:31;;;;;;;13.60;8.00;;;4.50;99.90;;;;;;5066372;28;20457;-73
2021/01/07 11:56:02;;;;;;;8.70;6.80;;;4.70;99.90;;;;;;5065911;28;20530;-72
2021/01/07 11:58:30;;;;;;;7.83;6.40;;;4.80;99.90;;;;;;5066483;28;20453;-70
2021/01/07 12:00:59;;;;;;;10.10;7.20;;;4.70;99.90;;;;;;5066061;28;20439;-71
2021/01/07 12:03:30;;;;;;;10.63;6.70;;;4.70;99.90;;;;;;5058152;28;20431;-71
2021/01/07 12:06:00;;;;;;;8.97;6.57;;;4.80;99.90;;;;;;5060729;28;20530;-75
2021/01/07 12:08:48;;;;;;;9.43;6.23;;;4.80;99.90;;;;;;5054928;28;20975;-72
2021/01/07 12:11:22;;;;;;;8.07;6.00;;;4.80;99.90;;;;;;5053665;28;21045;-74
2021/01/07 12:13:58;;;;;;;8.57;6.67;;;4.70;99.90;;;;;;5058960;28;20441;-73
2021/01/07 12:16:30;;;;;;;8.80;5.67;;;4.80;99.90;;;;;;5055297;28;21128;-72
2021/01/07 12:18:57;;;;;;;9.10;6.57;;;4.80;99.90;;;;;;5056644;28;20454;-72
2021/01/07 12:21:26;;;;;;;15.60;6.77;;;4.80;99.90;;;;;;5063687;28;20448;-69
2021/01/07 12:23:56;;;;;;;9.27;6.07;;;4.80;99.90;;;;;;5050021;28;21160;-70
2021/01/07 12:26:23;;;;;;;8.53;6.43;;;4.80;99.90;;;;;;5054766;28;20471;-71
2021/01/07 12:28:52;;;;;;;7.90;6.00;;;4.90;99.90;;;;;;5057335;28;20444;-70
2021/01/07 12:31:19;;;;;;;7.37;5.50;;;4.90;99.90;;;;;;5060350;28;20487;-69
2021/01/07 12:34:03;;;;;;;8.93;6.50;;;5.00;99.90;;;;;;5053721;28;20960;-73
2021/01/07 12:36:45;;;;;;;9.00;6.53;;;5.10;99.90;;;;;;5055184;28;20465;-71
2021/01/07 12:39:29;;;;;;;9.57;6.67;;;5.00;99.90;;;;;;5062446;28;20531;-73
2021/01/07 12:41:57;;;;;;;7.83;5.90;;;5.10;99.90;;;;;;5048700;28;20444;-71
2021/01/07 12:44:26;;;;;;;8.30;6.37;;;5.20;99.90;;;;;;5051323;28;21143;-72
2021/01/07 12:46:56;;;;;;;7.50;5.90;;;5.10;99.90;;;;;;5047426;28;20552;-70
2021/01/07 12:49:22;;;;;;;7.73;6.17;;;5.10;99.90;;;;;;5048267;28;20448;-69
2021/01/07 12:51:51;;;;;;;8.43;6.93;;;5.10;99.90;;;;;;5048583;28;20515;-69